Time;durP1;ratioP1;P1;durP2;ratioP2;P2;SDS_P1;SDS_P2;PMS_P1;PMS_P2;Temp;Humidity;BMP_temperature;BMP_pressure;BME280_temperature;BME280_humidity;BME280_pressure;Samples;Min_cycle;Max_cycle;Signal;HPM_P1;HPM_P2
2021/12/09 00:01:01;;;;;;;22.05;12.15;;;1.40;97.70;;;;;;5022772;28;20022;-66
2021/12/09 00:03:29;;;;;;;23.98;10.68;;;1.30;97.70;;;;;;5022390;28;20084;-66
2021/12/09 00:05:57;;;;;;;20.30;10.68;;;1.30;97.80;;;;;;5022478;28;20360;-66
2021/12/09 00:08:25;;;;;;;22.95;11.40;;;1.30;97.80;;;;;;5021385;28;20022;-66
2021/12/09 00:10:53;;;;;;;21.80;10.93;;;1.30;97.70;;;;;;5022910;28;20250;-66
2021/12/09 00:13:19;;;;;;;20.90;10.38;;;1.30;97.70;;;;;;5022595;28;20029;-66
2021/12/09 00:15:45;;;;;;;24.97;11.67;;;1.30;97.70;;;;;;5022446;28;20026;-66
2021/12/09 00:18:11;;;;;;;23.10;10.90;;;1.30;97.70;;;;;;5022407;28;20037;-66
2021/12/09 00:20:37;;;;;;;21.17;10.02;;;1.20;97.80;;;;;;5022491;28;20025;-66
2021/12/09 00:23:03;;;;;;;24.07;11.77;;;1.20;98.00;;;;;;5022488;28;20028;-66
2021/12/09 00:25:29;;;;;;;24.70;11.63;;;1.20;98.00;;;;;;5022211;28;20037;-65
2021/12/09 00:27:54;;;;;;;28.45;12.30;;;1.20;98.00;;;;;;5022543;28;20060;-65
2021/12/09 00:30:20;;;;;;;24.45;12.25;;;1.30;97.90;;;;;;5022479;28;20018;-65
2021/12/09 00:32:46;;;;;;;24.45;12.30;;;1.30;97.80;;;;;;5022009;28;20026;-65
2021/12/09 00:35:17;;;;;;;21.92;10.95;;;1.30;98.00;;;;;;5023552;28;20029;-65
2021/12/09 00:38:06;;;;;;;24.48;11.50;;;1.40;97.70;;;;;;5026300;28;20033;-65
2021/12/09 00:40:32;;;;;;;24.27;10.65;;;1.40;97.70;;;;;;5025302;28;20033;-65
2021/12/09 00:42:58;;;;;;;19.98;10.20;;;1.40;97.70;;;;;;5026073;28;20221;-66
2021/12/09 00:45:24;;;;;;;25.35;10.98;;;1.40;97.60;;;;;;5024811;28;20026;-66
2021/12/09 00:47:51;;;;;;;23.90;10.98;;;1.30;97.70;;;;;;5025758;28;20099;-65
2021/12/09 00:50:18;;;;;;;22.30;10.77;;;1.30;97.90;;;;;;5025959;28;20091;-65
2021/12/09 00:52:44;;;;;;;;;;;1.30;97.90;;;;;;5026387;28;20077;-66
2021/12/09 00:55:10;;;;;;;22.75;10.80;;;1.30;97.80;;;;;;5025787;28;19905;-66
2021/12/09 00:57:37;;;;;;;26.08;12.75;;;1.30;97.80;;;;;;5025916;28;20301;-65
2021/12/09 01:00:10;;;;;;;22.85;10.85;;;1.30;97.80;;;;;;5024734;28;20030;-66
2021/12/09 01:02:36;;;;;;;22.73;11.00;;;1.30;98.00;;;;;;5025585;28;20024;-66
2021/12/09 01:05:03;;;;;;;20.92;11.00;;;1.30;97.80;;;;;;5025680;28;20014;-66
2021/12/09 01:07:29;;;;;;;22.73;10.23;;;1.30;97.80;;;;;;5025677;28;20052;-66
2021/12/09 01:09:55;;;;;;;24.25;10.80;;;1.30;97.80;;;;;;5025603;28;20088;-66
2021/12/09 01:12:20;;;;;;;21.33;10.48;;;1.30;97.90;;;;;;5025557;28;20105;-65
2021/12/09 01:14:46;;;;;;;24.53;10.93;;;1.30;97.90;;;;;;5025191;28;20022;-66
2021/12/09 01:17:12;;;;;;;24.33;11.15;;;1.30;97.80;;;;;;5025432;28;20143;-65
2021/12/09 01:19:38;;;;;;;19.20;9.02;;;1.40;97.70;;;;;;5025301;28;20026;-65
2021/12/09 01:22:04;;;;;;;18.27;8.50;;;1.30;97.70;;;;;;5024330;28;20030;-65
2021/12/09 01:24:30;;;;;;;22.83;9.77;;;1.30;97.70;;;;;;5025111;28;20033;-65
2021/12/09 01:26:58;;;;;;;21.98;9.70;;;1.20;97.70;;;;;;5025286;28;20049;-65
2021/12/09 01:29:32;;;;;;;17.92;9.02;;;1.20;97.90;;;;;;5025044;28;20332;-65
2021/12/09 01:32:02;;;;;;;19.70;9.10;;;1.20;98.10;;;;;;5024056;28;20276;-65
2021/12/09 01:34:28;;;;;;;21.02;9.38;;;1.20;98.00;;;;;;5023413;28;20343;-65
2021/12/09 01:36:54;;;;;;;20.60;8.95;;;1.20;98.10;;;;;;5025208;28;20017;-65
2021/12/09 01:39:21;;;;;;;20.37;8.33;;;1.20;98.20;;;;;;5025182;28;20025;-65
2021/12/09 01:41:47;;;;;;;23.45;10.05;;;1.20;98.30;;;;;;5025102;28;20084;-65
2021/12/09 01:44:13;;;;;;;21.73;9.00;;;1.20;98.10;;;;;;5024729;28;20041;-65
2021/12/09 01:46:39;;;;;;;16.07;7.03;;;1.20;98.10;;;;;;5023952;28;20084;-65
2021/12/09 01:49:05;;;;;;;15.07;7.07;;;1.20;98.20;;;;;;5024754;28;20026;-65
2021/12/09 01:51:31;;;;;;;21.52;9.48;;;1.20;98.20;;;;;;5024895;28;20030;-65
2021/12/09 01:53:57;;;;;;;21.15;8.80;;;1.30;97.90;;;;;;5023638;28;20029;-65
2021/12/09 01:56:25;;;;;;;18.13;9.10;;;1.50;97.70;;;;;;5039854;28;20053;-65
2021/12/09 01:58:57;;;;;;;19.90;9.75;;;1.40;97.50;;;;;;5024679;28;20060;-65
2021/12/09 02:01:23;;;;;;;30.00;10.93;;;1.30;97.70;;;;;;5024621;28;20033;-65
2021/12/09 02:03:49;;;;;;;19.00;9.77;;;1.30;97.70;;;;;;5024313;28;20022;-65
2021/12/09 02:06:16;;;;;;;24.17;10.25;;;1.20;97.90;;;;;;5024319;28;20052;-65
2021/12/09 02:08:43;;;;;;;21.48;9.85;;;1.20;98.00;;;;;;5023265;28;20277;-64
2021/12/09 02:11:09;;;;;;;18.55;9.20;;;1.20;98.00;;;;;;5024433;28;20041;-65
2021/12/09 02:13:35;;;;;;;20.17;9.13;;;1.30;98.00;;;;;;5024446;28;20025;-65
2021/12/09 02:16:01;;;;;;;17.43;8.73;;;1.20;98.10;;;;;;5023040;28;20313;-65
2021/12/09 02:18:27;;;;;;;20.77;9.68;;;1.10;98.10;;;;;;5024090;28;20029;-65
2021/12/09 02:21:14;;;;;;;17.80;9.05;;;1.10;98.20;;;;;;5024369;28;20025;-65
2021/12/09 02:23:49;;;;;;;18.77;9.20;;;1.20;98.10;;;;;;5023074;28;20029;-65
2021/12/09 02:26:16;;;;;;;18.85;9.32;;;1.30;98.00;;;;;;5024190;28;20018;-65
2021/12/09 02:28:42;;;;;;;19.23;9.35;;;1.30;97.90;;;;;;5023578;28;20101;-65
2021/12/09 02:31:09;;;;;;;20.03;9.47;;;1.30;97.90;;;;;;5023780;28;20124;-65
2021/12/09 02:33:34;;;;;;;22.57;11.13;;;1.30;97.90;;;;;;5023223;28;20458;-65
2021/12/09 02:36:00;;;;;;;20.30;9.48;;;1.40;97.90;;;;;;5023695;28;20264;-65
2021/12/09 02:38:26;;;;;;;20.90;9.60;;;1.40;97.70;;;;;;5024051;28;20330;-65
2021/12/09 02:40:53;;;;;;;18.20;8.85;;;1.40;97.60;;;;;;5023984;28;20041;-65
2021/12/09 02:43:28;;;;;;;20.25;10.13;;;1.40;97.60;;;;;;5023817;28;20025;-65
2021/12/09 02:45:55;;;;;;;21.85;9.35;;;1.40;97.70;;;;;;5023545;28;20036;-65
2021/12/09 02:48:21;;;;;;;21.98;10.32;;;1.30;97.80;;;;;;5023488;28;20029;-65
2021/12/09 02:50:48;;;;;;;21.02;10.40;;;1.30;97.80;;;;;;5023645;28;20026;-65
2021/12/09 02:53:14;;;;;;;21.95;10.13;;;1.40;97.80;;;;;;5023630;28;20017;-65
2021/12/09 02:55:39;;;;;;;19.70;8.98;;;1.30;97.90;;;;;;5023463;28;20027;-65
2021/12/09 02:58:05;;;;;;;21.02;9.52;;;1.30;97.90;;;;;;5023451;28;20032;-65
2021/12/09 03:00:31;;;;;;;23.77;10.93;;;1.30;97.90;;;;;;5023572;28;20089;-65
2021/12/09 03:02:58;;;;;;;19.95;8.90;;;1.40;97.80;;;;;;5023356;28;20052;-65
2021/12/09 03:05:25;;;;;;;20.80;8.75;;;1.40;97.80;;;;;;5022122;28;20087;-65
2021/12/09 03:07:51;;;;;;;;;;;1.40;97.70;;;;;;5023880;28;20041;-65
2021/12/09 03:10:22;;;;;;;19.85;9.00;;;1.40;97.70;;;;;;5023336;28;19951;-65
2021/12/09 03:12:54;;;;;;;22.20;8.88;;;1.40;97.60;;;;;;5023368;28;20324;-65
2021/12/09 03:15:20;;;;;;;21.00;10.00;;;1.50;97.60;;;;;;5023122;28;20081;-65
2021/12/09 03:17:47;;;;;;;19.30;9.25;;;1.50;97.90;;;;;;5023853;28;20022;-65
2021/12/09 03:20:14;;;;;;;17.52;8.30;;;1.40;97.60;;;;;;5023788;28;20312;-65
2021/12/09 03:22:41;;;;;;;22.25;10.32;;;1.40;97.60;;;;;;5023420;28;20038;-65
2021/12/09 03:25:09;;;;;;;15.48;7.15;;;1.50;97.60;;;;;;5023188;28;20030;-65
2021/12/09 03:27:35;;;;;;;21.13;9.82;;;1.50;97.60;;;;;;5023245;28;20053;-65
2021/12/09 03:30:01;;;;;;;20.00;8.70;;;1.50;97.60;;;;;;5023071;28;20018;-65
2021/12/09 03:32:26;;;;;;;24.85;10.18;;;1.50;97.50;;;;;;5022981;28;20026;-65
2021/12/09 03:34:52;;;;;;;18.70;9.27;;;1.50;97.50;;;;;;5022529;28;20021;-65
2021/12/09 03:37:23;;;;;;;19.70;8.98;;;1.50;97.50;;;;;;5023178;28;20014;-65
2021/12/09 03:39:50;;;;;;;17.35;8.77;;;1.50;97.50;;;;;;5023044;28;20026;-65
2021/12/09 03:42:19;;;;;;;18.75;8.73;;;1.50;97.80;;;;;;5022839;28;20029;-65
2021/12/09 03:44:46;;;;;;;15.60;7.65;;;1.50;97.40;;;;;;5022572;28;20026;-65
2021/12/09 03:47:14;;;;;;;20.13;8.82;;;1.50;97.40;;;;;;5022829;28;20277;-65
2021/12/09 03:49:42;;;;;;;18.08;8.27;;;1.50;97.40;;;;;;5022565;28;20049;-64
2021/12/09 03:52:08;;;;;;;23.00;8.48;;;1.50;97.40;;;;;;5022815;28;20022;-65
2021/12/09 03:54:34;;;;;;;20.73;9.10;;;1.50;97.40;;;;;;5022517;28;20053;-65
2021/12/09 03:56:59;;;;;;;17.00;8.30;;;1.40;97.50;;;;;;5022689;28;20269;-65
2021/12/09 03:59:25;;;;;;;20.23;8.70;;;1.40;97.40;;;;;;5022610;28;20029;-65
2021/12/09 04:01:51;;;;;;;18.30;8.93;;;1.40;97.50;;;;;;5021555;28;20029;-65
2021/12/09 04:04:17;;;;;;;21.50;8.85;;;1.50;97.50;;;;;;5022040;28;20036;-65
2021/12/09 04:06:43;;;;;;;19.73;9.68;;;1.40;97.50;;;;;;5022637;28;20029;-65
2021/12/09 04:09:11;;;;;;;18.70;8.23;;;1.50;97.50;;;;;;5022360;28;20231;-64
2021/12/09 04:11:37;;;;;;;19.85;8.90;;;1.40;97.50;;;;;;5026735;28;20264;-65
2021/12/09 04:14:03;;;;;;;15.18;7.50;;;1.40;97.50;;;;;;5041825;28;20029;-65
2021/12/09 04:16:29;;;;;;;16.65;7.75;;;1.40;97.60;;;;;;5026476;28;20025;-65
2021/12/09 04:18:55;;;;;;;19.13;8.15;;;1.30;97.70;;;;;;5026284;28;20030;-65
2021/12/09 04:21:21;;;;;;;15.23;7.38;;;1.30;97.80;;;;;;5026509;28;20033;-65
2021/12/09 04:23:47;;;;;;;18.27;8.95;;;1.40;97.70;;;;;;5026533;28;20233;-65
2021/12/09 04:26:13;;;;;;;15.85;8.30;;;1.40;97.60;;;;;;5026376;28;20029;-65
2021/12/09 04:28:39;;;;;;;15.63;8.23;;;1.40;97.60;;;;;;5026330;28;20370;-65
2021/12/09 04:31:06;;;;;;;16.02;8.02;;;1.40;97.50;;;;;;5026690;28;20320;-66
2021/12/09 04:33:32;;;;;;;17.87;8.10;;;1.40;97.60;;;;;;5042200;23;20367;-69
2021/12/09 04:35:58;;;;;;;17.37;7.53;;;1.40;97.60;;;;;;5022633;28;20022;-69
2021/12/09 04:38:24;;;;;;;21.88;8.05;;;1.40;97.70;;;;;;5025063;28;20516;-70
2021/12/09 04:40:50;;;;;;;19.77;7.47;;;1.60;97.30;;;;;;5025124;28;20017;-70
2021/12/09 04:43:16;;;;;;;17.30;8.50;;;1.60;97.10;;;;;;5025019;28;20338;-70
2021/12/09 04:45:41;;;;;;;18.03;8.50;;;1.70;97.00;;;;;;5025939;28;20022;-70
2021/12/09 04:48:07;;;;;;;18.42;8.02;;;1.70;96.90;;;;;;5025895;28;20037;-70
2021/12/09 04:50:35;;;;;;;21.17;9.53;;;1.70;96.80;;;;;;5026173;28;20033;-71
2021/12/09 04:53:01;;;;;;;18.38;8.52;;;1.80;96.80;;;;;;5024838;28;20045;-70
2021/12/09 04:55:28;;;;;;;21.00;8.85;;;1.80;96.80;;;;;;5025647;28;20029;-70
2021/12/09 04:57:53;;;;;;;21.92;8.52;;;1.70;96.70;;;;;;5025888;28;20328;-70
2021/12/09 05:00:22;;;;;;;17.48;8.00;;;1.70;96.80;;;;;;5025888;28;20034;-71
2021/12/09 05:03:07;;;;;;;23.90;9.57;;;1.70;96.80;;;;;;5024698;28;20379;-70
2021/12/09 05:05:37;;;;;;;15.57;7.88;;;1.70;96.80;;;;;;5024519;28;20316;-70
2021/12/09 05:08:06;;;;;;;17.33;8.73;;;1.70;96.80;;;;;;5009017;28;20093;-70
2021/12/09 05:10:37;;;;;;;20.85;8.85;;;1.70;96.90;;;;;;4976218;28;20075;-70
2021/12/09 05:13:03;;;;;;;14.93;7.28;;;1.70;96.80;;;;;;5024502;28;20367;-70
2021/12/09 05:15:31;;;;;;;23.05;8.77;;;1.70;96.70;;;;;;5024171;28;20224;-70
2021/12/09 05:17:56;;;;;;;21.92;9.90;;;1.70;96.70;;;;;;5024476;28;20033;-69
2021/12/09 05:20:22;;;;;;;19.77;8.18;;;1.70;96.80;;;;;;5025316;28;20084;-70
2021/12/09 05:22:48;;;;;;;17.40;8.60;;;1.70;96.80;;;;;;5025277;28;20036;-69
2021/12/09 05:25:14;;;;;;;16.98;7.97;;;1.70;96.90;;;;;;5025127;28;20034;-70
2021/12/09 05:27:40;;;;;;;22.77;9.27;;;1.70;96.80;;;;;;5025392;28;20037;-70
2021/12/09 05:30:12;;;;;;;17.60;8.02;;;1.70;96.90;;;;;;5025254;28;20029;-69
2021/12/09 05:32:38;;;;;;;19.38;9.15;;;1.60;96.80;;;;;;5024254;28;20092;-70
2021/12/09 05:35:04;;;;;;;16.95;7.78;;;1.60;97.00;;;;;;5024502;28;20332;-70
2021/12/09 05:37:30;;;;;;;21.45;8.85;;;1.60;97.10;;;;;;5023874;28;20022;-70
2021/12/09 05:39:56;;;;;;;18.30;7.85;;;1.60;97.10;;;;;;5025110;28;20224;-70
2021/12/09 05:42:23;;;;;;;18.35;8.55;;;1.60;97.00;;;;;;5024063;28;20032;-70
2021/12/09 05:44:49;;;;;;;18.60;8.00;;;1.60;97.00;;;;;;5024792;28;20201;-69
2021/12/09 05:47:15;;;;;;;18.05;8.20;;;1.70;97.00;;;;;;5024025;28;20041;-70
2021/12/09 05:49:44;;;;;;;16.52;8.23;;;1.60;97.00;;;;;;5040059;28;20033;-69
2021/12/09 05:52:11;;;;;;;17.83;7.63;;;1.60;97.00;;;;;;5023738;28;20021;-69
2021/12/09 05:54:37;;;;;;;16.30;7.30;;;1.70;97.00;;;;;;5007356;28;20026;-69
2021/12/09 05:57:03;;;;;;;17.55;8.65;;;1.60;97.10;;;;;;5024796;28;20336;-69
2021/12/09 05:59:29;;;;;;;17.98;7.90;;;1.50;97.20;;;;;;5023749;28;20201;-70
2021/12/09 06:01:54;;;;;;;28.70;9.53;;;1.50;97.50;;;;;;5007337;28;20029;-69
2021/12/09 06:04:21;;;;;;;21.40;9.30;;;1.50;97.60;;;;;;5024096;28;20036;-70
2021/12/09 06:06:47;;;;;;;17.77;7.55;;;1.40;97.80;;;;;;5024520;28;20048;-70
2021/12/09 06:09:13;;;;;;;15.07;8.10;;;1.50;97.60;;;;;;5024434;28;20321;-70
2021/12/09 06:11:39;;;;;;;18.00;8.50;;;1.60;97.30;;;;;;5024568;28;20029;-70
2021/12/09 06:14:06;;;;;;;21.58;9.50;;;1.50;97.30;;;;;;5025298;28;20232;-69
2021/12/09 06:16:33;;;;;;;22.27;9.18;;;1.50;97.60;;;;;;5024395;28;20022;-69
2021/12/09 06:18:59;;;;;;;20.48;9.02;;;1.40;97.70;;;;;;5007623;28;20037;-68
2021/12/09 06:21:27;;;;;;;25.30;9.88;;;1.40;97.80;;;;;;5008256;28;20033;-69
2021/12/09 06:23:57;;;;;;;24.30;10.52;;;1.40;97.80;;;;;;5024618;28;20097;-69
2021/12/09 06:26:23;;;;;;;17.60;8.75;;;1.50;97.90;;;;;;5026465;28;20026;-70
2021/12/09 06:28:49;;;;;;;22.93;10.40;;;1.50;97.70;;;;;;5027385;28;20025;-70
2021/12/09 06:31:14;;;;;;;16.10;8.88;;;1.50;97.70;;;;;;5026394;28;20048;-69
2021/12/09 06:33:40;;;;;;;19.25;8.70;;;1.40;97.80;;;;;;5024060;28;20332;-69
2021/12/09 06:36:06;;;;;;;20.03;9.33;;;1.40;97.70;;;;;;5040825;28;20022;-69
2021/12/09 06:38:32;;;;;;;17.97;8.00;;;1.40;97.70;;;;;;5025883;28;20224;-69
2021/12/09 06:40:58;;;;;;;21.30;9.35;;;1.40;97.80;;;;;;5026221;28;20122;-70
2021/12/09 06:43:24;;;;;;;21.40;8.38;;;1.40;97.90;;;;;;5025228;28;20025;-70
2021/12/09 06:45:55;;;;;;;17.17;8.25;;;1.40;97.90;;;;;;5025221;28;20221;-69
2021/12/09 06:48:21;;;;;;;19.88;9.80;;;1.40;97.80;;;;;;5008664;28;20029;-69
2021/12/09 06:50:47;;;;;;;18.75;9.23;;;1.40;97.80;;;;;;5018879;28;20112;-69
2021/12/09 06:53:14;;;;;;;20.33;8.63;;;1.50;97.70;;;;;;5005928;28;20105;-71
2021/12/09 06:55:41;;;;;;;16.83;8.73;;;1.60;97.50;;;;;;5021865;28;20026;-70
2021/12/09 06:58:07;;;;;;;21.08;8.18;;;1.70;97.30;;;;;;5022702;28;20248;-72
2021/12/09 07:00:34;;;;;;;22.97;9.40;;;1.60;97.40;;;;;;5005208;28;20022;-72
2021/12/09 07:03:00;;;;;;;19.98;7.95;;;1.60;97.60;;;;;;5038595;28;20257;-71
2021/12/09 07:05:27;;;;;;;20.70;8.70;;;1.50;97.60;;;;;;4986124;28;20026;-72
2021/12/09 07:07:52;;;;;;;;;;;1.50;97.80;;;;;;5003066;28;20023;-69
2021/12/09 07:10:19;;;;;;;19.42;8.10;;;1.60;97.70;;;;;;5002787;28;19916;-72
2021/12/09 07:12:45;;;;;;;19.27;9.27;;;1.70;97.40;;;;;;5004261;28;20026;-73
2021/12/09 07:15:12;;;;;;;19.70;9.57;;;1.80;97.30;;;;;;4986670;28;20106;-72
2021/12/09 07:17:38;;;;;;;19.20;8.60;;;1.70;97.30;;;;;;5002104;28;20034;-71
2021/12/09 07:20:06;;;;;;;20.58;8.68;;;1.70;97.40;;;;;;5001738;28;20049;-72
2021/12/09 07:22:32;;;;;;;18.02;8.45;;;1.80;97.30;;;;;;5015237;28;20017;-72
2021/12/09 07:24:58;;;;;;;18.83;9.00;;;1.80;97.20;;;;;;5013449;28;20022;-68
2021/12/09 07:27:23;;;;;;;18.80;9.07;;;1.80;97.50;;;;;;5022163;28;20026;-68
2021/12/09 07:29:49;;;;;;;17.27;8.20;;;1.70;97.50;;;;;;5023032;28;20018;-68
2021/12/09 07:32:15;;;;;;;22.20;8.95;;;1.70;97.70;;;;;;5022847;28;20316;-67
2021/12/09 07:34:41;;;;;;;16.40;7.03;;;1.70;97.70;;;;;;5022285;28;20085;-67
2021/12/09 07:37:07;;;;;;;17.88;7.82;;;1.70;97.60;;;;;;5023292;28;20022;-68
2021/12/09 07:39:33;;;;;;;15.18;7.05;;;1.80;97.80;;;;;;5038501;28;20100;-68
2021/12/09 07:42:00;;;;;;;17.25;7.88;;;1.80;97.60;;;;;;5021977;28;20018;-69
2021/12/09 07:44:27;;;;;;;18.08;8.13;;;1.70;97.80;;;;;;5020741;28;20057;-69
2021/12/09 07:46:54;;;;;;;23.92;8.65;;;1.60;97.90;;;;;;5022112;28;20028;-69
2021/12/09 07:49:23;;;;;;;17.65;8.30;;;1.60;98.00;;;;;;5021677;28;20033;-68
2021/12/09 07:51:49;;;;;;;17.58;7.80;;;1.60;98.00;;;;;;5019289;28;20092;-69
2021/12/09 07:54:15;;;;;;;17.35;8.60;;;1.70;98.10;;;;;;5013597;28;20026;-69
2021/12/09 07:56:41;;;;;;;24.40;9.97;;;1.70;98.00;;;;;;5021875;28;20022;-69
2021/12/09 07:59:08;;;;;;;19.05;8.40;;;1.60;98.10;;;;;;5022513;28;20224;-69
2021/12/09 08:01:34;;;;;;;21.92;8.55;;;1.70;98.00;;;;;;5023119;28;20094;-71
2021/12/09 08:04:01;;;;;;;19.43;8.23;;;1.70;98.00;;;;;;5021243;28;20029;-72
2021/12/09 08:06:27;;;;;;;18.48;8.98;;;1.70;98.00;;;;;;5022054;28;20025;-71
2021/12/09 08:08:53;;;;;;;22.98;9.60;;;1.70;97.90;;;;;;5022167;28;20025;-69
2021/12/09 08:11:19;;;;;;;23.02;8.85;;;1.80;97.90;;;;;;5022241;28;20021;-70
2021/12/09 08:13:44;;;;;;;28.48;10.65;;;1.90;97.90;;;;;;5022092;28;20022;-69
2021/12/09 08:16:10;;;;;;;22.63;8.95;;;2.00;97.90;;;;;;5022005;28;20033;-69
2021/12/09 08:18:53;;;;;;;20.83;9.60;;;2.00;97.70;;;;;;5022018;28;20053;-69
2021/12/09 08:21:24;;;;;;;27.13;9.95;;;2.10;97.60;;;;;;5022279;28;20030;-70
2021/12/09 08:23:51;;;;;;;25.70;9.52;;;2.10;97.40;;;;;;5019080;28;20045;-70
2021/12/09 08:26:18;;;;;;;22.10;10.45;;;2.20;97.30;;;;;;5020898;28;20024;-71
2021/12/09 08:28:43;;;;;;;24.20;9.63;;;2.20;97.30;;;;;;5015148;28;20026;-70
2021/12/09 08:31:09;;;;;;;19.98;9.15;;;2.20;97.40;;;;;;5022666;28;20018;-68
2021/12/09 08:33:35;;;;;;;17.55;8.40;;;2.40;96.90;;;;;;5022470;28;20018;-68
2021/12/09 08:36:01;;;;;;;25.08;9.38;;;2.50;96.50;;;;;;5021933;28;20072;-69
2021/12/09 08:38:27;;;;;;;22.15;9.48;;;2.60;96.30;;;;;;5021146;28;20026;-68
2021/12/09 08:40:53;;;;;;;25.42;10.40;;;2.60;96.20;;;;;;5004915;28;20078;-68
2021/12/09 08:43:19;;;;;;;22.70;9.23;;;2.50;96.40;;;;;;5022511;28;20026;-76
2021/12/09 08:45:46;;;;;;;22.43;10.13;;;2.50;96.70;;;;;;5004903;28;20232;-76
2021/12/09 08:48:12;;;;;;;25.23;10.23;;;2.50;96.70;;;;;;5005007;28;20287;-75
2021/12/09 08:50:38;;;;;;;20.77;10.17;;;2.50;96.60;;;;;;5020994;28;20336;-76
2021/12/09 08:53:07;;;;;;;27.75;11.45;;;2.50;96.60;;;;;;5022296;28;20018;-76
2021/12/09 08:55:33;;;;;;;28.73;11.55;;;2.50;96.50;;;;;;5006426;28;20018;-75
2021/12/09 08:57:59;;;;;;;22.05;10.00;;;2.60;96.60;;;;;;5024418;28;20072;-74
2021/12/09 09:00:26;;;;;;;25.95;9.57;;;2.60;96.60;;;;;;5024888;28;20024;-75
2021/12/09 09:02:52;;;;;;;26.85;10.80;;;2.60;96.50;;;;;;4992409;28;20205;-75
2021/12/09 09:05:18;;;;;;;29.90;10.93;;;2.70;96.30;;;;;;5024264;28;20048;-76
2021/12/09 09:07:45;;;;;;;23.30;10.30;;;2.70;96.20;;;;;;5024672;28;20022;-76
2021/12/09 09:10:13;;;;;;;29.58;10.68;;;2.80;96.20;;;;;;5024665;28;20338;-75
2021/12/09 09:12:39;;;;;;;29.23;11.15;;;2.80;96.10;;;;;;5008545;28;20216;-75
2021/12/09 09:15:10;;;;;;;29.23;11.47;;;2.90;96.20;;;;;;5024334;28;20029;-75
2021/12/09 09:17:36;;;;;;;26.48;11.43;;;2.90;96.10;;;;;;5008241;28;20022;-75
2021/12/09 09:20:07;;;;;;;25.60;10.67;;;2.90;96.10;;;;;;5025288;28;20229;-75
2021/12/09 09:22:33;;;;;;;27.88;11.32;;;3.00;96.00;;;;;;5025393;28;20018;-76
2021/12/09 09:24:59;;;;;;;30.58;9.80;;;3.00;95.70;;;;;;5024026;28;20046;-76
2021/12/09 09:27:25;;;;;;;26.58;11.30;;;3.10;95.90;;;;;;5024480;28;20067;-76
2021/12/09 09:29:50;;;;;;;30.48;11.48;;;3.00;95.50;;;;;;5025274;28;20057;-76
2021/12/09 09:32:16;;;;;;;30.13;10.23;;;3.10;95.80;;;;;;5024216;28;20320;-75
2021/12/09 09:34:42;;;;;;;30.20;11.40;;;3.00;95.50;;;;;;5024554;28;20081;-75
2021/12/09 09:37:08;;;;;;;26.15;10.95;;;3.00;95.80;;;;;;5025142;28;20072;-75
2021/12/09 09:39:34;;;;;;;28.98;12.45;;;3.10;95.70;;;;;;5025204;28;20018;-75
2021/12/09 09:42:18;;;;;;;26.53;11.53;;;3.20;95.20;;;;;;5024116;28;20383;-74
2021/12/09 09:44:55;;;;;;;30.02;10.85;;;3.20;95.50;;;;;;5023794;28;20650;-75
2021/12/09 09:47:29;;;;;;;27.27;10.63;;;3.30;95.30;;;;;;5008113;28;20021;-75
2021/12/09 09:49:55;;;;;;;28.48;12.10;;;3.20;95.10;;;;;;5023680;28;20025;-76
2021/12/09 09:52:21;;;;;;;25.85;11.25;;;3.20;95.10;;;;;;5007682;28;20018;-76
2021/12/09 09:54:47;;;;;;;32.35;12.57;;;3.20;95.20;;;;;;5023490;28;20033;-76
2021/12/09 09:57:13;;;;;;;28.60;11.35;;;3.30;95.20;;;;;;5023774;28;20071;-76
2021/12/09 09:59:42;;;;;;;34.88;12.40;;;3.20;95.20;;;;;;5023707;28;20216;-76
2021/12/09 10:02:11;;;;;;;28.20;12.07;;;3.10;95.00;;;;;;5024638;28;20057;-76
2021/12/09 10:04:59;;;;;;;24.63;12.02;;;3.10;95.30;;;;;;5022985;28;20058;-75
2021/12/09 10:07:24;;;;;;;29.38;12.07;;;3.00;95.30;;;;;;5023836;28;20060;-75
2021/12/09 10:09:51;;;;;;;31.35;13.60;;;3.00;95.60;;;;;;5024367;28;20241;-75
2021/12/09 10:12:17;;;;;;;35.67;13.40;;;3.00;95.80;;;;;;5023230;28;20025;-73
2021/12/09 10:14:50;;;;;;;29.83;11.98;;;3.20;95.60;;;;;;5023850;28;20048;-73
2021/12/09 10:17:26;;;;;;;25.08;11.63;;;3.10;96.00;;;;;;5023225;28;20320;-73
2021/12/09 10:20:00;;;;;;;27.13;11.25;;;3.20;95.70;;;;;;5023637;28;20028;-72
2021/12/09 10:22:32;;;;;;;32.28;13.73;;;3.20;95.50;;;;;;5024460;28;20021;-73
2021/12/09 10:24:58;;;;;;;26.75;12.88;;;3.20;95.60;;;;;;5022983;28;20021;-73
2021/12/09 10:27:31;;;;;;;32.38;13.55;;;3.20;95.50;;;;;;5007159;28;20030;-73
2021/12/09 10:30:17;;;;;;;34.83;16.50;;;3.30;95.40;;;;;;5023184;28;20033;-68
2021/12/09 10:32:43;;;;;;;29.70;12.45;;;3.30;95.10;;;;;;5024266;28;20021;-71
2021/12/09 10:35:15;;;;;;;25.98;11.40;;;3.40;95.10;;;;;;5035999;23;20034;-65
2021/12/09 10:37:41;;;;;;;27.10;12.80;;;3.40;94.90;;;;;;5018409;28;20022;-66
2021/12/09 10:40:26;;;;;;;28.73;12.43;;;3.30;95.20;;;;;;5023016;28;20328;-67
2021/12/09 10:42:54;;;;;;;32.67;12.73;;;3.20;95.50;;;;;;5024003;28;20108;-67
2021/12/09 10:45:29;;;;;;;27.17;11.65;;;3.30;95.70;;;;;;5006639;28;20072;-67
2021/12/09 10:48:06;;;;;;;27.40;12.52;;;3.30;95.70;;;;;;5023949;28;20182;-67
2021/12/09 10:50:43;;;;;;;32.33;13.32;;;3.30;95.60;;;;;;5022463;28;20342;-66
2021/12/09 10:55:52;;;;;;;20.02;9.52;;;3.30;95.10;;;;;;5003920;28;19906;-68
2021/12/09 10:58:23;;;;;;;25.30;11.07;;;3.40;95.30;;;;;;4987195;28;20026;-67
2021/12/09 11:01:13;;;;;;;20.75;10.10;;;3.50;95.40;;;;;;5003056;28;20061;-67
2021/12/09 11:03:53;;;;;;;23.00;11.07;;;3.60;95.40;;;;;;4998075;28;20041;-67
2021/12/09 11:06:35;;;;;;;18.92;10.50;;;3.60;95.40;;;;;;5002813;28;20082;-67
2021/12/09 11:09:06;;;;;;;24.05;11.77;;;3.70;95.00;;;;;;5002010;28;20038;-66
2021/12/09 11:11:41;;;;;;;23.45;11.02;;;3.80;95.00;;;;;;5003019;28;20148;-68
2021/12/09 11:14:14;;;;;;;24.83;9.90;;;3.90;94.80;;;;;;5002990;28;20082;-67
2021/12/09 11:16:44;;;;;;;17.40;9.40;;;4.10;94.40;;;;;;5003873;28;20062;-66
2021/12/09 11:19:48;;;;;;;27.60;10.55;;;4.10;94.00;;;;;;5001589;28;20032;-68
2021/12/09 11:22:13;;;;;;;17.42;9.57;;;4.20;94.20;;;;;;5002380;28;20077;-68
2021/12/09 11:24:43;;;;;;;19.05;10.23;;;4.20;94.10;;;;;;4999055;28;20041;-67
2021/12/09 11:27:15;;;;;;;24.63;9.27;;;4.30;93.70;;;;;;5002422;28;20225;-67
2021/12/09 11:29:43;;;;;;;18.02;8.50;;;4.30;93.80;;;;;;4992964;28;20058;-67
2021/12/09 11:34:59;;;;;;;17.20;8.02;;;4.20;94.30;;;;;;4992059;28;20014;-67
2021/12/09 11:40:00;;;;;;;17.85;8.45;;;4.30;93.30;;;;;;5002584;28;20320;-67
2021/12/09 11:42:32;;;;;;;20.05;9.45;;;4.20;93.60;;;;;;5003493;28;20317;-66
2021/12/09 11:44:58;;;;;;;16.60;9.00;;;4.10;94.10;;;;;;5001173;28;20022;-67
2021/12/09 11:47:24;;;;;;;18.73;9.05;;;4.20;94.20;;;;;;5002205;28;20029;-65
2021/12/09 11:49:51;;;;;;;20.15;8.40;;;4.20;94.30;;;;;;5003211;28;20029;-66
2021/12/09 11:52:19;;;;;;;16.45;8.52;;;4.20;94.10;;;;;;4985640;28;20021;-68
2021/12/09 11:54:53;;;;;;;14.55;7.18;;;4.20;94.10;;;;;;5003032;28;20028;-67
2021/12/09 12:12:29;;;;;;;19.58;7.57;;;4.00;94.00;;;;;;4996484;28;20022;-67
2021/12/09 12:15:00;;;;;;;11.85;6.35;;;4.00;93.80;;;;;;4983327;28;20027;-69
2021/12/09 12:17:34;;;;;;;17.58;7.35;;;4.00;93.70;;;;;;4983522;28;20054;-67
2021/12/09 12:40:06;;;;;;;14.63;6.47;;;3.90;93.70;;;;;;4988808;28;20026;-67
2021/12/09 12:42:51;;;;;;;14.73;6.78;;;3.80;93.60;;;;;;5005308;28;20097;-67
2021/12/09 12:45:38;;;;;;;14.73;7.20;;;3.80;93.70;;;;;;5006194;28;20029;-66
2021/12/09 12:48:54;;;;;;;16.65;7.75;;;3.90;93.60;;;;;;4993351;28;20093;-67
2021/12/09 12:51:55;;;;;;;16.65;7.78;;;3.80;93.90;;;;;;4986983;28;20134;-67
2021/12/09 12:54:33;;;;;;;14.13;7.35;;;3.70;94.00;;;;;;4986472;28;20437;-67
2021/12/09 12:57:02;;;;;;;12.52;6.45;;;3.70;94.00;;;;;;4986791;28;20027;-67
2021/12/09 12:59:36;;;;;;;14.80;7.57;;;3.70;94.20;;;;;;4988904;28;20019;-67
2021/12/09 13:05:38;;;;;;;19.20;7.43;;;3.60;94.50;;;;;;5002223;28;20026;-67
2021/12/09 13:08:24;;;;;;;17.27;7.07;;;3.60;94.70;;;;;;5005181;28;20018;-67
2021/12/09 13:16:42;;;;;;;19.65;8.27;;;3.60;95.10;;;;;;5005734;28;20031;-69
2021/12/09 13:22:01;;;;;;;20.92;7.82;;;3.60;94.90;;;;;;5006014;28;20378;-68
2021/12/09 13:24:48;;;;;;;17.10;7.57;;;3.60;95.00;;;;;;5004815;28;20030;-68
2021/12/09 13:27:38;;;;;;;15.43;7.72;;;3.60;94.90;;;;;;5005897;28;20093;-67
2021/12/09 13:36:27;;;;;;;18.77;7.78;;;3.60;95.00;;;;;;5005398;28;20045;-67
2021/12/09 13:50:15;;;;;;;15.98;8.15;;;3.80;95.20;;;;;;5005380;28;20014;-67
2021/12/09 13:55:20;;;;;;;17.77;7.72;;;3.70;94.60;;;;;;5004718;28;20077;-67
2021/12/09 13:58:10;;;;;;;16.83;7.78;;;3.70;94.60;;;;;;5004085;28;20029;-67
2021/12/09 14:00:45;;;;;;;13.70;6.90;;;3.60;94.40;;;;;;4986928;28;20026;-67
2021/12/09 14:03:15;;;;;;;17.67;7.55;;;3.60;94.30;;;;;;4985733;28;20022;-67
2021/12/09 14:05:50;;;;;;;12.68;6.80;;;3.60;94.30;;;;;;4985400;28;20027;-67
2021/12/09 14:08:35;;;;;;;19.10;7.82;;;3.60;94.20;;;;;;4984568;28;20065;-67